Time;durP1;ratioP1;P1;durP2;ratioP2;P2;SDS_P1;SDS_P2;PMS_P1;PMS_P2;Temp;Humidity;BMP_temperature;BMP_pressure;BME280_temperature;BME280_humidity;BME280_pressure;Samples;Min_cycle;Max_cycle;Signal;HPM_P1;HPM_P2
2022/05/29 00:00:20;;;;;;;3.90;1.40;;;9.90;99.90;;;;;;5104296;28;20050;-71
2022/05/29 00:02:48;;;;;;;5.93;1.58;;;9.90;99.90;;;;;;5107281;28;20054;-69
2022/05/29 00:05:14;;;;;;;6.50;1.50;;;9.90;99.90;;;;;;5097409;28;20036;-70
2022/05/29 00:07:49;;;;;;;7.85;2.20;;;9.90;99.90;;;;;;5077334;28;20044;-70
2022/05/29 00:10:16;;;;;;;7.18;1.55;;;10.00;99.90;;;;;;5098473;28;20046;-70
2022/05/29 00:12:43;;;;;;;6.72;1.50;;;9.90;99.90;;;;;;5110231;28;20045;-72
2022/05/29 00:15:10;;;;;;;4.72;1.63;;;9.90;99.90;;;;;;5103880;28;20051;-71
2022/05/29 00:17:36;;;;;;;6.72;1.77;;;9.90;99.90;;;;;;5104593;28;20093;-70
2022/05/29 00:20:04;;;;;;;6.55;1.90;;;9.90;99.90;;;;;;5111622;28;20364;-71
2022/05/29 00:22:31;;;;;;;7.72;1.90;;;10.00;99.90;;;;;;5105525;28;20044;-71
2022/05/29 00:24:57;;;;;;;6.20;1.83;;;10.00;99.90;;;;;;5098634;28;20470;-71
2022/05/29 00:27:23;;;;;;;11.25;2.60;;;10.10;99.90;;;;;;5101215;28;20051;-71
2022/05/29 00:29:49;;;;;;;11.95;2.38;;;10.10;99.90;;;;;;5112040;28;20054;-71
2022/05/29 00:32:15;;;;;;;8.68;2.00;;;9.90;99.90;;;;;;5110085;28;20040;-71
2022/05/29 00:34:40;;;;;;;9.68;2.00;;;9.90;99.90;;;;;;5099898;28;20040;-71
2022/05/29 00:37:08;;;;;;;7.03;2.00;;;9.80;99.90;;;;;;5081321;28;20541;-71
2022/05/29 00:39:34;;;;;;;6.05;1.52;;;9.70;99.90;;;;;;5090844;28;20048;-71
2022/05/29 00:42:06;;;;;;;6.78;1.80;;;9.60;99.90;;;;;;5108858;27;20522;-71
2022/05/29 00:44:33;;;;;;;4.72;1.60;;;9.60;99.90;;;;;;5105743;28;20036;-71
2022/05/29 00:47:18;;;;;;;7.75;1.70;;;9.60;99.90;;;;;;5101015;28;20040;-71
2022/05/29 00:49:47;;;;;;;6.03;1.50;;;9.50;99.90;;;;;;5088911;28;20048;-71
2022/05/29 00:52:22;;;;;;;6.55;1.60;;;9.60;99.90;;;;;;5104224;28;20515;-71
2022/05/29 00:55:01;;;;;;;5.85;1.40;;;9.50;99.90;;;;;;5108899;28;20027;-71
2022/05/29 00:57:37;;;;;;;5.15;1.40;;;9.50;99.90;;;;;;5097214;28;20048;-71
2022/05/29 01:00:10;;;;;;;8.85;1.80;;;9.50;99.90;;;;;;5096691;28;20040;-71
2022/05/29 01:02:36;;;;;;;6.72;2.22;;;9.60;99.90;;;;;;5104258;28;20479;-71
2022/05/29 01:05:05;;;;;;;;;;;9.50;99.90;;;;;;5109844;28;20035;-71
2022/05/29 01:07:32;;;;;;;7.47;2.10;;;9.60;99.90;;;;;;5104743;28;19919;-71
2022/05/29 01:09:59;;;;;;;6.85;2.10;;;9.50;99.90;;;;;;5108408;28;21047;-70
2022/05/29 01:12:34;;;;;;;6.22;1.70;;;9.60;99.90;;;;;;5084426;28;20479;-70
2022/05/29 01:15:20;;;;;;;6.68;1.83;;;9.50;99.90;;;;;;5093341;28;20090;-76
2022/05/29 01:18:07;;;;;;;5.72;1.80;;;9.60;99.90;;;;;;5100318;28;20047;-76
2022/05/29 01:20:35;;;;;;;7.05;1.70;;;9.70;99.90;;;;;;5098950;28;20051;-76
2022/05/29 01:23:29;;;;;;;7.00;1.50;;;9.70;99.90;;;;;;5102005;28;20054;-76
2022/05/29 01:26:16;;;;;;;7.18;1.80;;;9.70;99.90;;;;;;5098713;28;20039;-76
2022/05/29 01:28:51;;;;;;;4.18;1.52;;;9.70;99.90;;;;;;5111189;28;20071;-76
2022/05/29 01:31:30;;;;;;;10.45;2.08;;;9.80;99.90;;;;;;5082373;28;20040;-76
2022/05/29 01:34:14;;;;;;;6.32;1.70;;;9.80;99.90;;;;;;5102581;28;20462;-76
2022/05/29 01:37:12;;;;;;;6.18;1.75;;;9.90;99.90;;;;;;5110029;28;20078;-75
2022/05/29 01:39:56;;;;;;;3.90;1.30;;;9.90;99.90;;;;;;5102769;28;20052;-75
2022/05/29 01:42:28;;;;;;;7.63;2.00;;;9.80;99.90;;;;;;5091483;28;20052;-76
2022/05/29 01:45:03;;;;;;;7.65;1.90;;;9.90;99.90;;;;;;5100633;28;20085;-75
2022/05/29 01:47:41;;;;;;;9.65;2.45;;;9.90;99.90;;;;;;5103413;28;20052;-76
2022/05/29 01:50:11;;;;;;;6.88;1.77;;;10.00;99.90;;;;;;5089697;28;20040;-76
2022/05/29 01:52:52;;;;;;;7.78;2.15;;;9.90;99.90;;;;;;5095995;28;20050;-76
2022/05/29 01:55:28;;;;;;;7.28;2.15;;;10.00;99.90;;;;;;5108138;28;20040;-76
2022/05/29 01:58:04;;;;;;;5.20;1.95;;;9.90;99.90;;;;;;5100315;28;20077;-76
2022/05/29 02:00:31;;;;;;;5.43;1.80;;;9.90;99.90;;;;;;5101540;28;20039;-76
2022/05/29 02:03:13;;;;;;;7.88;2.00;;;10.00;99.90;;;;;;5105415;28;20433;-76
2022/05/29 02:06:10;;;;;;;6.90;1.98;;;10.00;99.90;;;;;;5093492;28;20044;-76
2022/05/29 02:08:54;;;;;;;7.72;2.22;;;10.00;99.90;;;;;;5095380;28;20124;-76
2022/05/29 02:11:25;;;;;;;4.50;1.75;;;10.00;99.90;;;;;;5109101;28;20583;-76
2022/05/29 02:13:59;;;;;;;5.70;1.88;;;10.10;99.90;;;;;;5105268;28;20533;-75
2022/05/29 02:17:00;;;;;;;6.68;1.73;;;10.10;99.90;;;;;;5099838;28;20043;-76
2022/05/29 02:19:37;;;;;;;7.75;1.90;;;10.00;99.90;;;;;;5095045;28;20559;-75
2022/05/29 02:22:11;;;;;;;7.00;1.70;;;10.10;99.90;;;;;;5099905;28;20552;-75
2022/05/29 02:24:41;;;;;;;9.52;2.33;;;10.10;99.90;;;;;;5097425;28;20111;-75
2022/05/29 02:27:14;;;;;;;4.78;1.52;;;10.20;99.90;;;;;;5103452;28;20046;-75
2022/05/29 02:29:40;;;;;;;3.22;1.30;;;10.20;99.90;;;;;;5101254;28;20109;-75
2022/05/29 02:32:35;;;;;;;6.38;1.58;;;10.20;99.90;;;;;;5108572;28;20035;-75
2022/05/29 02:35:08;;;;;;;7.32;1.83;;;10.20;99.90;;;;;;5103089;28;20078;-75
2022/05/29 02:37:55;;;;;;;6.93;1.90;;;10.30;99.90;;;;;;5106630;28;20075;-75
2022/05/29 02:40:48;;;;;;;9.02;2.20;;;10.30;99.90;;;;;;5105653;28;20035;-75
2022/05/29 02:43:42;;;;;;;7.97;2.22;;;10.30;99.90;;;;;;5091093;28;20043;-75
2022/05/29 02:46:27;;;;;;;9.32;2.50;;;10.30;99.90;;;;;;5102134;28;20116;-75
2022/05/29 02:49:01;;;;;;;8.90;2.22;;;10.40;99.90;;;;;;5091271;28;20420;-75
2022/05/29 02:51:46;;;;;;;10.13;2.47;;;10.40;99.90;;;;;;5107922;28;20139;-75
2022/05/29 02:54:20;;;;;;;7.47;2.00;;;10.30;99.90;;;;;;5103076;28;20114;-75
2022/05/29 02:56:45;;;;;;;9.20;2.08;;;10.10;99.90;;;;;;5106473;28;20042;-75
2022/05/29 02:59:11;;;;;;;7.93;1.73;;;10.00;99.90;;;;;;5104879;28;20036;-75
2022/05/29 03:01:59;;;;;;;9.00;1.98;;;10.00;99.90;;;;;;5106229;28;20063;-75
2022/05/29 03:04:43;;;;;;;6.72;1.90;;;10.00;99.90;;;;;;5102686;28;20044;-75
2022/05/29 03:07:42;;;;;;;6.45;2.13;;;10.00;99.90;;;;;;5095261;28;20040;-71
2022/05/29 03:10:55;;;;;;;5.43;1.83;;;10.00;99.90;;;;;;5088682;28;20515;-71
2022/05/29 03:13:49;;;;;;;6.40;1.52;;;9.90;99.90;;;;;;5067612;28;20068;-71
2022/05/29 03:16:28;;;;;;;7.15;2.10;;;10.00;99.90;;;;;;5076843;28;20044;-71
2022/05/29 03:19:27;;;;;;;7.05;1.77;;;10.00;99.90;;;;;;5093010;28;20414;-71
2022/05/29 03:22:08;;;;;;;9.60;2.08;;;10.00;99.90;;;;;;5098590;28;20510;-71
2022/05/29 03:24:46;;;;;;;7.72;1.73;;;9.90;99.90;;;;;;5095934;28;20047;-71
2022/05/29 03:27:41;;;;;;;7.20;1.88;;;10.00;99.90;;;;;;5097790;28;20054;-69
2022/05/29 03:30:31;;;;;;;6.93;1.70;;;10.10;99.90;;;;;;5102480;28;20040;-70
2022/05/29 03:32:59;;;;;;;4.75;1.60;;;10.00;99.90;;;;;;5101083;28;21466;-70
2022/05/29 03:35:41;;;;;;;7.15;1.92;;;10.00;99.90;;;;;;5106560;28;20367;-71
2022/05/29 03:38:07;;;;;;;8.85;1.73;;;10.10;99.90;;;;;;5094441;28;20040;-71
2022/05/29 03:40:34;;;;;;;5.90;1.90;;;10.10;99.90;;;;;;5113358;28;20180;-70
2022/05/29 03:43:00;;;;;;;5.47;1.50;;;10.10;99.90;;;;;;5113597;28;20066;-71
2022/05/29 03:45:27;;;;;;;4.70;1.30;;;10.10;99.90;;;;;;5110438;28;20047;-70
2022/05/29 03:47:53;;;;;;;7.55;1.65;;;10.10;99.90;;;;;;5107943;28;20047;-70
2022/05/29 03:50:20;;;;;;;12.52;1.95;;;10.20;99.90;;;;;;5098873;28;20062;-70
2022/05/29 03:52:47;;;;;;;5.43;1.40;;;10.30;99.90;;;;;;5109032;28;20119;-70
2022/05/29 03:55:15;;;;;;;4.50;1.48;;;10.30;99.90;;;;;;5098211;28;20482;-70
2022/05/29 03:57:40;;;;;;;7.68;1.63;;;10.30;99.90;;;;;;5099007;28;20032;-70
2022/05/29 04:00:09;;;;;;;7.32;1.95;;;10.30;99.90;;;;;;5101165;28;20048;-71
2022/05/29 04:02:35;;;;;;;9.15;1.85;;;10.30;99.90;;;;;;5106386;28;20111;-70
2022/05/29 04:05:01;;;;;;;4.97;1.38;;;10.20;99.90;;;;;;5097116;28;20075;-71
2022/05/29 04:12:58;;;;;;;8.80;1.80;;;10.20;99.90;;;;;;5114239;28;20088;-71
2022/05/29 04:15:25;;;;;;;7.10;1.70;;;10.20;99.90;;;;;;5108332;28;20079;-71
2022/05/29 04:17:51;;;;;;;8.50;1.67;;;10.20;99.90;;;;;;5096952;28;20140;-71
2022/05/29 04:20:18;;;;;;;7.95;1.90;;;10.20;99.90;;;;;;5104610;28;20052;-70
2022/05/29 04:22:44;;;;;;;6.75;2.20;;;10.20;99.90;;;;;;5094903;28;20048;-70
2022/05/29 04:25:10;;;;;;;9.43;1.83;;;10.10;99.90;;;;;;5110711;28;20058;-71
2022/05/29 04:27:35;;;;;;;6.53;1.67;;;10.20;99.90;;;;;;5091545;28;20388;-70
2022/05/29 04:30:01;;;;;;;14.60;1.80;;;10.20;99.90;;;;;;5096488;28;20398;-70
2022/05/29 04:35:11;;;;;;;9.45;2.05;;;10.00;99.90;;;;;;5099371;28;20118;-70
2022/05/29 04:37:37;;;;;;;10.27;3.08;;;10.00;99.90;;;;;;5109619;28;20114;-70
2022/05/29 04:40:03;;;;;;;7.57;1.92;;;10.00;99.90;;;;;;5076465;28;20052;-70
2022/05/29 04:42:29;;;;;;;;;;;9.90;99.90;;;;;;5100720;28;20044;-70
2022/05/29 04:44:55;;;;;;;6.95;1.85;;;9.90;99.90;;;;;;5103378;28;20011;-70
2022/05/29 04:47:21;;;;;;;6.97;1.40;;;9.90;99.90;;;;;;5105607;28;20047;-71
2022/05/29 04:49:46;;;;;;;6.82;1.70;;;9.90;99.90;;;;;;5098906;28;20048;-69
2022/05/29 04:52:12;;;;;;;9.75;1.63;;;9.90;99.90;;;;;;5109992;28;20039;-71
2022/05/29 04:54:39;;;;;;;5.80;1.50;;;9.90;99.90;;;;;;5110072;28;20043;-70
2022/05/29 04:57:06;;;;;;;7.22;1.70;;;9.90;99.90;;;;;;5097771;28;20479;-70
2022/05/29 04:59:33;;;;;;;7.93;1.63;;;10.00;99.90;;;;;;5107005;28;20532;-70
2022/05/29 05:01:58;;;;;;;;;;;10.00;99.90;;;;;;5102342;28;20050;-70
2022/05/29 05:04:24;;;;;;;7.78;1.50;;;10.10;99.90;;;;;;5097153;28;19920;-70
2022/05/29 05:06:58;;;;;;;6.07;1.40;;;10.00;99.90;;;;;;5096639;28;20070;-70
2022/05/29 05:09:25;;;;;;;4.43;1.30;;;10.10;99.90;;;;;;5104055;28;20486;-69
2022/05/29 05:11:52;;;;;;;9.90;1.83;;;10.20;99.90;;;;;;5098590;28;20050;-69
2022/05/29 05:14:19;;;;;;;7.28;1.38;;;10.20;99.90;;;;;;5084649;28;20074;-69
2022/05/29 05:16:46;;;;;;;7.55;1.55;;;10.30;99.90;;;;;;5105090;28;20135;-69
2022/05/29 05:19:13;;;;;;;5.53;1.60;;;10.30;99.90;;;;;;5111294;28;20046;-69
2022/05/29 05:21:38;;;;;;;6.55;1.33;;;10.30;99.90;;;;;;5109448;28;20513;-69
2022/05/29 05:24:05;;;;;;;5.88;1.50;;;10.40;99.90;;;;;;5104679;28;20036;-69
2022/05/29 05:26:31;;;;;;;6.05;1.42;;;10.40;99.90;;;;;;5098688;28;20043;-70
2022/05/29 05:28:57;;;;;;;8.27;1.70;;;10.40;99.90;;;;;;5098252;28;20047;-69
2022/05/29 05:31:24;;;;;;;11.13;2.20;;;10.40;99.90;;;;;;5102554;27;20509;-70
2022/05/29 05:33:51;;;;;;;9.18;2.35;;;10.30;99.90;;;;;;5113251;27;20035;-70
2022/05/29 05:36:16;;;;;;;8.70;1.95;;;10.20;99.90;;;;;;5084275;28;20376;-70
2022/05/29 05:38:42;;;;;;;10.95;2.88;;;10.00;99.90;;;;;;5105477;28;20054;-70
2022/05/29 05:41:13;;;;;;;10.32;2.08;;;10.00;99.90;;;;;;5094974;28;20109;-69
2022/05/29 05:43:39;;;;;;;8.95;2.72;;;9.90;99.90;;;;;;5110584;28;20051;-70
2022/05/29 05:46:06;;;;;;;;;;;9.90;99.90;;;;;;5093689;28;20039;-70
2022/05/29 05:48:31;;;;;;;6.38;1.70;;;10.00;99.90;;;;;;5098480;28;19961;-70
2022/05/29 05:50:58;;;;;;;8.57;1.80;;;10.10;99.90;;;;;;5096044;28;20044;-70
2022/05/29 05:53:24;;;;;;;11.68;2.03;;;10.10;99.90;;;;;;5097397;28;20043;-70
2022/05/29 05:55:50;;;;;;;5.70;1.30;;;10.10;99.90;;;;;;5097025;28;20039;-70
2022/05/29 05:58:16;;;;;;;8.50;1.50;;;10.20;99.90;;;;;;5095641;28;20039;-70
2022/05/29 06:00:49;;;;;;;9.73;2.10;;;10.20;99.90;;;;;;5100394;28;20553;-70
2022/05/29 06:03:15;;;;;;;10.00;2.28;;;10.40;99.90;;;;;;5110060;28;20160;-70
2022/05/29 06:05:41;;;;;;;6.78;1.63;;;10.30;99.90;;;;;;5087396;28;20399;-69
2022/05/29 06:08:08;;;;;;;8.88;2.05;;;10.40;99.90;;;;;;5105024;28;20492;-69
2022/05/29 06:10:34;;;;;;;9.05;1.85;;;10.30;99.90;;;;;;5101039;28;20043;-69
2022/05/29 06:13:05;;;;;;;9.07;2.28;;;10.40;99.90;;;;;;5099341;28;20036;-69
2022/05/29 06:15:31;;;;;;;10.93;2.08;;;10.40;99.90;;;;;;5100017;28;20052;-69
2022/05/29 06:17:57;;;;;;;9.20;2.30;;;10.50;99.90;;;;;;5101267;28;20132;-69
2022/05/29 06:20:24;;;;;;;6.75;1.83;;;10.60;99.90;;;;;;5072267;28;20082;-69
2022/05/29 06:22:50;;;;;;;10.02;1.98;;;10.60;99.90;;;;;;5102755;28;20043;-69
2022/05/29 06:25:17;;;;;;;6.43;1.70;;;10.60;99.90;;;;;;5099735;28;20036;-70
2022/05/29 06:27:43;;;;;;;;;;;10.70;99.90;;;;;;5105178;28;20051;-70
2022/05/29 06:30:13;;;;;;;5.32;1.50;;;10.70;99.90;;;;;;5095679;28;19920;-70
2022/05/29 06:32:39;;;;;;;6.00;1.30;;;10.70;99.90;;;;;;5099540;28;20044;-70
2022/05/29 06:35:06;;;;;;;6.07;1.10;;;10.70;99.90;;;;;;5106139;28;20036;-70
2022/05/29 06:37:32;;;;;;;6.20;1.42;;;10.80;99.90;;;;;;5098124;28;20491;-70
2022/05/29 06:39:58;;;;;;;8.50;1.70;;;10.80;99.90;;;;;;5095757;28;20050;-70
2022/05/29 06:42:24;;;;;;;10.52;1.50;;;10.80;99.90;;;;;;5094126;28;20040;-71
2022/05/29 06:44:50;;;;;;;4.82;1.00;;;10.80;99.90;;;;;;5088100;28;20456;-69
2022/05/29 06:47:17;;;;;;;6.97;1.38;;;10.80;99.90;;;;;;5105739;28;20037;-70
2022/05/29 06:49:43;;;;;;;5.45;1.63;;;10.80;99.90;;;;;;5098930;28;20079;-70
2022/05/29 06:52:10;;;;;;;8.77;1.70;;;10.80;99.90;;;;;;5101063;28;20075;-71
2022/05/29 06:54:37;;;;;;;7.60;1.60;;;10.80;99.90;;;;;;5099347;28;20106;-69
2022/05/29 06:57:06;;;;;;;11.20;1.70;;;10.80;99.90;;;;;;5108361;28;20063;-69
2022/05/29 07:06:58;;;;;;;10.85;1.63;;;10.80;99.90;;;;;;5110860;28;20487;-69
2022/05/29 07:07:50;;;;;;;7.60;1.42;;;11.00;99.90;;;;;;5090540;28;20106;-74
2022/05/29 07:10:16;;;;;;;6.65;1.60;;;11.00;99.90;;;;;;5096031;28;20480;-74
2022/05/29 07:12:42;;;;;;;10.02;1.63;;;11.00;99.90;;;;;;5095072;28;20036;-74
2022/05/29 07:15:09;;;;;;;7.30;1.50;;;10.90;99.90;;;;;;5093641;28;20048;-74
2022/05/29 07:17:35;;;;;;;9.05;2.55;;;10.90;99.90;;;;;;5092855;28;20055;-75
2022/05/29 07:20:03;;;;;;;7.35;1.38;;;10.70;99.90;;;;;;5097403;28;20083;-74
2022/05/29 07:22:32;;;;;;;4.97;1.13;;;10.70;99.90;;;;;;5104927;28;20040;-74
2022/05/29 07:24:58;;;;;;;4.75;1.30;;;10.70;99.90;;;;;;5098520;28;20097;-74
2022/05/29 07:27:24;;;;;;;6.47;1.10;;;10.70;99.90;;;;;;5097439;28;20040;-74
2022/05/29 07:29:49;;;;;;;7.75;1.00;;;10.80;99.90;;;;;;5095328;28;20483;-75
2022/05/29 07:32:15;;;;;;;3.20;1.00;;;10.80;99.90;;;;;;5094464;28;20039;-75
2022/05/29 07:34:44;;;;;;;1.80;0.80;;;10.80;99.90;;;;;;5093578;28;20043;-74
2022/05/29 07:37:15;;;;;;;6.28;1.02;;;11.00;99.90;;;;;;5104372;28;20127;-74
2022/05/29 07:39:48;;;;;;;4.72;1.30;;;11.00;99.90;;;;;;5106599;28;20101;-75
2022/05/29 07:44:59;;;;;;;6.32;1.23;;;11.00;99.90;;;;;;5105357;28;20058;-75
2022/05/29 07:47:30;;;;;;;3.25;0.85;;;11.10;99.90;;;;;;5105713;28;20486;-75
2022/05/29 07:49:58;;;;;;;3.58;0.88;;;11.20;99.90;;;;;;5099515;28;20052;-76
2022/05/29 07:52:25;;;;;;;3.25;0.70;;;11.20;99.90;;;;;;5093845;28;20455;-75
2022/05/29 07:54:52;;;;;;;4.95;1.20;;;11.20;99.90;;;;;;5098750;28;20066;-75
2022/05/29 07:57:18;;;;;;;3.55;0.80;;;11.20;99.90;;;;;;5104921;28;20044;-76
2022/05/29 07:59:44;;;;;;;3.78;0.90;;;11.20;99.90;;;;;;5092143;28;20043;-75
2022/05/29 08:02:10;;;;;;;5.15;1.42;;;11.10;99.90;;;;;;5102070;28;20047;-75
2022/05/29 08:04:36;;;;;;;4.35;0.82;;;10.90;99.90;;;;;;5095920;28;20123;-74
2022/05/29 08:07:02;;;;;;;6.13;1.10;;;10.90;99.90;;;;;;5095981;28;20070;-76
2022/05/29 08:09:28;;;;;;;2.88;0.90;;;10.80;99.90;;;;;;5103926;28;20402;-75
2022/05/29 08:11:54;;;;;;;4.38;0.90;;;10.80;99.90;;;;;;5106014;28;20042;-74
2022/05/29 08:14:19;;;;;;;4.78;1.00;;;10.90;99.90;;;;;;5092064;28;20054;-75
2022/05/29 08:16:45;;;;;;;4.95;1.20;;;10.90;99.90;;;;;;5095367;28;20040;-74
2022/05/29 08:19:11;;;;;;;4.22;1.08;;;11.00;99.90;;;;;;5091170;28;20040;-74
2022/05/29 08:21:36;;;;;;;6.00;1.10;;;11.10;99.90;;;;;;5094217;28;20051;-74
2022/05/29 08:32:14;;;;;;;2.85;0.90;;;10.90;99.90;;;;;;5094591;28;20048;-75
2022/05/29 08:34:42;;;;;;;6.10;1.25;;;10.80;99.90;;;;;;5094191;28;20036;-75
2022/05/29 08:37:08;;;;;;;7.47;1.52;;;10.70;99.90;;;;;;5101322;28;20043;-75
2022/05/29 08:39:35;;;;;;;4.85;1.20;;;10.50;99.90;;;;;;5094567;28;20405;-75
2022/05/29 08:42:01;;;;;;;6.45;1.48;;;10.50;99.90;;;;;;5104371;27;20032;-76
2022/05/29 08:44:27;;;;;;;8.00;1.30;;;10.40;99.90;;;;;;5107065;28;20097;-75
2022/05/29 08:47:00;;;;;;;6.13;1.20;;;10.50;99.90;;;;;;5099169;28;20075;-75
2022/05/29 08:49:30;;;;;;;5.25;1.20;;;10.40;99.90;;;;;;5075937;28;20048;-74
2022/05/29 08:52:14;;;;;;;6.13;1.20;;;10.40;99.90;;;;;;5098669;28;20094;-74
2022/05/29 08:54:52;;;;;;;4.65;1.17;;;10.40;99.90;;;;;;5092807;28;20105;-74
2022/05/29 08:57:37;;;;;;;6.28;1.10;;;10.60;99.90;;;;;;5107278;28;20066;-75
2022/05/29 09:00:18;;;;;;;3.85;0.80;;;10.60;99.90;;;;;;5093842;28;20492;-76
2022/05/29 09:02:58;;;;;;;5.72;1.13;;;10.70;99.90;;;;;;5097709;28;20487;-74
2022/05/29 09:05:33;;;;;;;5.20;1.00;;;10.50;99.90;;;;;;5111285;27;20056;-75
2022/05/29 09:08:06;;;;;;;5.15;1.00;;;10.50;99.90;;;;;;5096702;28;20038;-75
2022/05/29 09:10:42;;;;;;;3.80;1.00;;;10.60;99.90;;;;;;5077862;28;20044;-75
2022/05/29 09:13:17;;;;;;;3.60;1.00;;;10.70;99.90;;;;;;5098332;28;20036;-76
2022/05/29 09:15:53;;;;;;;4.53;1.00;;;10.80;99.90;;;;;;5096025;28;20044;-76
2022/05/29 09:18:45;;;;;;;3.80;0.80;;;10.90;99.90;;;;;;5106063;28;20043;-75
2022/05/29 09:21:18;;;;;;;7.03;1.80;;;11.20;99.90;;;;;;5092424;28;20071;-75
2022/05/29 09:23:51;;;;;;;3.78;0.90;;;11.10;99.90;;;;;;5095322;28;20036;-77
2022/05/29 09:26:19;;;;;;;5.50;1.00;;;11.30;99.90;;;;;;5096642;28;20105;-76
2022/05/29 09:28:45;;;;;;;5.13;1.00;;;11.20;99.90;;;;;;5103875;28;20046;-75
2022/05/29 09:31:20;;;;;;;7.13;1.30;;;11.10;99.90;;;;;;5102279;28;20044;-74
2022/05/29 09:33:46;;;;;;;5.65;1.38;;;11.10;99.90;;;;;;5093899;28;20115;-74
2022/05/29 09:36:24;;;;;;;5.75;1.10;;;10.90;99.90;;;;;;5090464;28;20064;-75
2022/05/29 09:38:53;;;;;;;3.97;0.95;;;10.90;99.90;;;;;;5091916;28;20123;-75
2022/05/29 09:41:28;;;;;;;7.03;1.60;;;11.00;99.90;;;;;;5093352;28;20044;-75
2022/05/29 09:44:18;;;;;;;5.35;1.10;;;11.00;99.90;;;;;;5077582;28;20040;-75
2022/05/29 09:46:48;;;;;;;6.15;1.27;;;11.10;99.90;;;;;;5091644;28;20036;-75
2022/05/29 09:49:42;;;;;;;5.63;1.00;;;11.20;99.90;;;;;;5095546;28;20119;-74
2022/05/29 09:52:18;;;;;;;5.75;1.52;;;11.40;99.90;;;;;;5095181;28;20044;-75
2022/05/29 09:54:51;;;;;;;5.40;1.25;;;11.50;99.90;;;;;;5101976;28;20036;-75
2022/05/29 09:57:23;;;;;;;5.45;1.27;;;11.50;99.90;;;;;;5097110;28;20158;-75
2022/05/29 09:59:56;;;;;;;4.03;0.88;;;11.70;99.90;;;;;;5098915;28;20083;-76
2022/05/29 10:02:25;;;;;;;6.18;1.00;;;11.80;99.90;;;;;;5096185;28;20044;-75
2022/05/29 10:04:54;;;;;;;4.38;1.10;;;11.90;99.90;;;;;;5098275;28;20105;-75
2022/05/29 10:07:44;;;;;;;2.92;0.88;;;11.90;99.90;;;;;;5102837;28;20043;-75
2022/05/29 10:10:14;;;;;;;7.03;1.30;;;11.80;99.90;;;;;;5097597;28;20036;-75
2022/05/29 10:12:44;;;;;;;4.68;1.02;;;11.90;99.90;;;;;;5088711;28;20034;-75
2022/05/29 10:15:26;;;;;;;6.60;1.63;;;11.80;99.90;;;;;;5093553;28;20052;-75
2022/05/29 10:17:58;;;;;;;7.57;1.30;;;11.70;99.90;;;;;;5100498;28;20040;-75
2022/05/29 10:20:30;;;;;;;4.47;0.98;;;11.60;99.90;;;;;;5082231;28;20055;-75
2022/05/29 10:22:59;;;;;;;5.03;1.23;;;11.60;99.90;;;;;;5105474;28;20075;-75
2022/05/29 10:25:32;;;;;;;8.40;1.48;;;11.40;99.90;;;;;;5101620;28;20044;-75
2022/05/29 10:28:04;;;;;;;4.03;1.00;;;11.50;99.90;;;;;;5090412;28;20134;-75
2022/05/29 10:30:52;;;;;;;3.60;1.00;;;11.30;99.90;;;;;;5092222;28;20096;-75
2022/05/29 10:33:24;;;;;;;3.33;0.82;;;11.30;99.90;;;;;;5090134;28;20044;-75
2022/05/29 10:35:58;;;;;;;5.88;0.85;;;11.60;99.90;;;;;;5090913;28;20143;-75
2022/05/29 10:38:27;;;;;;;7.30;1.40;;;11.70;99.90;;;;;;5078955;28;20039;-75
2022/05/29 10:40:58;;;;;;;4.55;1.00;;;11.80;99.90;;;;;;5094294;28;20115;-75
2022/05/29 10:43:51;;;;;;;4.20;0.98;;;12.10;99.90;;;;;;5093504;28;20083;-75
2022/05/29 10:46:23;;;;;;;4.63;1.10;;;12.30;99.90;;;;;;5093582;28;20048;-75
2022/05/29 10:49:04;;;;;;;6.72;1.40;;;12.10;99.90;;;;;;5092827;28;20032;-74
2022/05/29 10:52:05;;;;;;;5.25;1.55;;;11.80;99.90;;;;;;5093364;28;20058;-74
2022/05/29 10:55:03;;;;;;;4.88;1.00;;;11.30;99.90;;;;;;5089739;28;20537;-75
2022/05/29 10:57:41;;;;;;;5.53;1.10;;;11.20;99.90;;;;;;5097201;28;20067;-69
2022/05/29 11:00:33;;;;;;;3.67;1.00;;;11.00;99.90;;;;;;5087949;28;20772;-70
2022/05/29 11:03:23;;;;;;;5.68;1.13;;;10.90;99.90;;;;;;5091670;28;20691;-70
2022/05/29 11:06:15;;;;;;;5.13;1.23;;;10.70;99.90;;;;;;5088678;28;20104;-70
2022/05/29 11:08:56;;;;;;;6.68;1.08;;;10.70;99.90;;;;;;5088640;28;20483;-70
2022/05/29 11:11:33;;;;;;;8.00;1.27;;;10.80;99.90;;;;;;5090987;28;20052;-70
2022/05/29 11:14:19;;;;;;;5.18;1.33;;;10.90;99.90;;;;;;5098335;28;20056;-70
2022/05/29 11:16:58;;;;;;;5.22;1.30;;;10.90;99.90;;;;;;5104055;28;20048;-70
2022/05/29 11:19:45;;;;;;;5.00;0.90;;;11.20;99.90;;;;;;5091958;28;20101;-70
2022/05/29 11:22:14;;;;;;;4.68;1.00;;;11.40;99.90;;;;;;5099411;28;20035;-69
2022/05/29 11:24:58;;;;;;;5.22;1.38;;;11.60;99.90;;;;;;5104271;28;20035;-68
2022/05/29 11:27:48;;;;;;;5.03;1.20;;;11.70;99.90;;;;;;5108607;28;20440;-69
2022/05/29 11:30:32;;;;;;;6.45;1.30;;;11.80;99.90;;;;;;5091524;28;20043;-70
2022/05/29 11:33:14;;;;;;;4.97;1.08;;;11.90;99.90;;;;;;5094020;28;20044;-70
2022/05/29 11:36:04;;;;;;;6.88;1.50;;;12.00;99.90;;;;;;5096755;28;20035;-70
2022/05/29 11:38:48;;;;;;;3.50;1.10;;;11.80;99.90;;;;;;5088753;28;20123;-70
2022/05/29 11:41:25;;;;;;;5.80;1.60;;;12.00;99.90;;;;;;5076802;28;20391;-68
2022/05/29 11:44:07;;;;;;;8.73;1.40;;;12.00;99.90;;;;;;5087048;28;20418;-69
2022/05/29 11:52:13;;;;;;;5.40;1.20;;;12.20;99.90;;;;;;5104771;28;20047;-70
2022/05/29 11:54:50;;;;;;;6.70;1.55;;;12.20;99.90;;;;;;5097851;28;20475;-70
2022/05/29 11:57:27;;;;;;;7.38;2.03;;;12.30;99.90;;;;;;5104796;28;20543;-70
2022/05/29 12:00:10;;;;;;;4.72;1.30;;;12.20;99.90;;;;;;5103893;28;20512;-70
2022/05/29 12:02:45;;;;;;;7.20;1.60;;;12.20;99.90;;;;;;5098514;28;20099;-70
2022/05/29 12:05:23;;;;;;;5.32;1.38;;;12.20;99.90;;;;;;5101003;28;20047;-69
2022/05/29 12:08:19;;;;;;;5.32;1.35;;;12.20;99.90;;;;;;5095986;28;20040;-70
2022/05/29 12:11:15;;;;;;;5.00;1.30;;;11.80;99.90;;;;;;5089868;28;20071;-69
2022/05/29 12:14:07;;;;;;;9.13;1.83;;;11.60;99.90;;;;;;5098936;28;20132;-69
2022/05/29 12:16:36;;;;;;;5.05;1.35;;;10.90;99.90;;;;;;5102691;28;20055;-69
2022/05/29 12:19:09;;;;;;;5.20;1.38;;;10.80;99.90;;;;;;5099445;28;20038;-70
2022/05/29 12:21:49;;;;;;;6.70;1.30;;;10.70;99.90;;;;;;5108342;28;20516;-69
2022/05/29 12:24:20;;;;;;;5.13;1.20;;;10.60;99.90;;;;;;5101456;28;20048;-69
2022/05/29 12:26:59;;;;;;;2.67;0.95;;;10.80;99.90;;;;;;5101432;28;20047;-69
2022/05/29 12:29:30;;;;;;;5.15;1.17;;;10.90;99.90;;;;;;5110183;28;20051;-70
2022/05/29 12:32:04;;;;;;;3.17;0.95;;;11.30;99.90;;;;;;5105214;28;20040;-69
2022/05/29 12:34:36;;;;;;;5.93;1.30;;;11.40;99.90;;;;;;5107346;28;20395;-69
2022/05/29 12:37:45;;;;;;;5.03;1.20;;;11.50;99.90;;;;;;5109690;28;20042;-69
2022/05/29 12:40:19;;;;;;;5.03;1.00;;;11.90;99.90;;;;;;5082131;28;20054;-70
2022/05/29 12:42:48;;;;;;;7.13;1.30;;;12.00;99.90;;;;;;5100619;28;20498;-69
2022/05/29 12:45:23;;;;;;;6.13;1.30;;;12.20;99.90;;;;;;5100046;28;20044;-69
2022/05/29 12:47:49;;;;;;;4.60;1.10;;;12.40;99.90;;;;;;5095586;28;20718;-70
2022/05/29 12:50:35;;;;;;;7.88;1.33;;;12.50;99.90;;;;;;5102697;28;20044;-69
2022/05/29 12:53:12;;;;;;;6.57;1.48;;;12.70;99.90;;;;;;5104857;28;20483;-69
2022/05/29 12:55:56;;;;;;;6.97;1.67;;;12.60;99.90;;;;;;5105124;28;20082;-69
2022/05/29 12:58:53;;;;;;;5.05;1.30;;;12.60;99.90;;;;;;5090632;28;20169;-69
2022/05/29 13:01:25;;;;;;;5.50;1.25;;;12.60;99.90;;;;;;5102961;28;20484;-69
2022/05/29 13:04:06;;;;;;;5.80;1.25;;;12.50;99.90;;;;;;5094705;28;20093;-69
2022/05/29 13:06:53;;;;;;;5.78;1.20;;;12.60;99.90;;;;;;5096107;28;20036;-70
2022/05/29 13:09:47;;;;;;;6.35;1.50;;;12.80;99.90;;;;;;5092710;28;20123;-69
2022/05/29 13:12:19;;;;;;;5.28;1.27;;;12.70;99.90;;;;;;5096369;28;20044;-70
2022/05/29 13:14:56;;;;;;;6.47;1.20;;;12.70;99.90;;;;;;5100440;28;20061;-70
2022/05/29 13:17:34;;;;;;;7.75;1.70;;;12.70;99.90;;;;;;5095023;28;20040;-70
2022/05/29 13:20:12;;;;;;;4.38;1.10;;;12.70;99.90;;;;;;5107143;28;20048;-70
2022/05/29 13:22:50;;;;;;;6.72;1.40;;;12.80;99.90;;;;;;5099259;28;20097;-68
2022/05/29 13:25:19;;;;;;;8.15;1.83;;;12.80;99.90;;;;;;5095525;28;20044;-69
2022/05/29 13:27:45;;;;;;;6.20;1.35;;;12.80;99.90;;;;;;5100735;28;20500;-69
2022/05/29 13:30:34;;;;;;;5.68;1.35;;;12.80;99.90;;;;;;5091010;28;20127;-68
2022/05/29 13:33:28;;;;;;;6.10;1.23;;;12.60;99.90;;;;;;5107497;28;20378;-69
2022/05/29 13:35:54;;;;;;;5.43;1.35;;;12.50;99.90;;;;;;5096210;28;20048;-69
2022/05/29 13:38:45;;;;;;;7.93;1.40;;;12.30;99.90;;;;;;5092128;28;20421;-69
2022/05/29 13:41:51;;;;;;;6.80;1.48;;;12.30;99.90;;;;;;5093064;28;20052;-69
2022/05/29 13:44:55;;;;;;;5.13;1.33;;;12.10;99.90;;;;;;5091216;28;20059;-69
2022/05/29 13:47:25;;;;;;;4.90;1.30;;;12.00;99.90;;;;;;5039307;28;20041;-69
2022/05/29 13:50:02;;;;;;;5.45;1.25;;;12.00;99.90;;;;;;5067155;28;20048;-69
2022/05/29 13:52:35;;;;;;;8.63;1.38;;;12.20;99.90;;;;;;5088248;28;20082;-70
2022/05/29 13:55:08;;;;;;;7.55;1.60;;;12.30;99.90;;;;;;5094857;28;20035;-70